Terminal Aerodrome Forecast
Issued by NWS Chicago, IL

Home | Current Version | Previous Version | Text Only | Print | Product List | Glossary On
Versions: 1 2 3 4 5 6 7 8 9 10 11 12 13 14 15 16 17 18 19 20 21 22 23 24 25 26 27 28 29 30
000
FTUS43 KLOT 281356 AAA
TAFRFD
TAF AMD
KRFD 281356Z 2814/2912 19003KT P6SM FEW250
     FM281500 18006KT P6SM FEW050 SCT250
     FM282000 17009KT P6SM SCT250
     FM290300 12005KT P6SM FEW050 BKN250
     FM290900 18010KT P6SM -SHRA BKN040 BKN080 PROB30 2909/2912
      -TSRA BKN040CB=

USA.gov is the U.S. government's official web portal to all federal, state and local government web resources and services.